Glendora, CA (91740)

1:56 AM PDT on October 01, 2014 (GMT -0700)
South Glendora | Change Station
CLOSE
Current Station
Personal Weather Station
Location: Glendora, CA
Elevation: 750 ft
Nearby Weather Stations

Elev 750 ft 34.11 °N, 117.85 °W | Updated 6 seconds ago

Clear
Clear
63.1 °F
Feels Like 63.1 °F
N
0.0
Wind Variable Wind from SW
Gusts 0.0 mph

Today
High -- | Low -- °F
--% Chance of Precip.
Yesterday
High -- | Low -- °F
Precip. -- in
6:46 AM 6:35 PM
Waxing Crescent, 45% visible
Pressure 29.74 in
Visibility 10.0 miles
Clouds Clear
Dew Point 52 °F
Humidity 67%
Rainfall 0.00 in
Snow Depth Not available.
UV 0 out of 12
Pollen 5.30 out of 12
Ozone Good
PM2.5 Good
Flu Activity Not available.
METAR KONT 010753Z 27003KT 10SM CLR 19/13 A2979 RMK AO2 SLP070 T01940128 403220167

More Conditions Fewer Conditions

Pressure 29.74 in
Visibility 10.0 miles
Clouds Clear
Dew Point 52 °F
Humidity 67%
Rainfall 0.00 in
Snow Depth Not available.
UV 0 out of 12
Pollen 5.30 out of 12
Ozone Good
PM2.5 Good
Flu Activity Not available.
METAR KONT 010753Z 27003KT 10SM CLR 19/13 A2979 RMK AO2 SLP070 T01940128 403220167

More Conditions Fewer Conditions

10-Day Weather Forecast

Almanac

Astronomy

Oct. 01, 2014 Rise Set
Actual Time 6:46 AM PDT 6:35 PM PDT
Civil Twilight 6:21 AM PDT 7:00 PM PDT
Nautical Twilight 5:51 AM PDT 7:29 PM PDT
Astronomical Twilight 5:22 AM PDT 7:58 PM PDT
Moon 1:39 PM PDT No Moon Set
Length of Visible Light 12h 39m
Length of Day
11h 49m
Tomorrow will be 2m 7s shorter.
Waxing Crescent, 45% of the Moon is Illuminated
Today
Waxing Crescent
Oct 1
First Quarter
Oct 8
Full
Oct 15
Last Quarter
Oct 23
New

Today's Extremes

State Highs State Lows

Community

WunderPhotos

Upload Photos

1,757,902 photos uploaded!

Nearby

Air Quality

  Air Quality AQ Index Pollutant
Yesterday Moderate
OZONE
Yesterday Good
PM10
Current Good
PM2.5
Current Good
OZONE
Wednesday Moderate
OZONE
Wednesday Good
PM10
Wednesday Good
CO
Wednesday Good
NO2

Snow Depth

Station Depth Elevation
Forestdale Creek 0 in 8029 ft
Echo Peak 1 in 7800 ft
Squaw Valley 0 in 8200 ft
Sonora Pass 0 in 8800 ft
Poison Flat 0 in 7900 ft

Earthquake Activity

City Distance Mag. Time & Date
Avalon, California 77 miles 2.6 1:28 PM PDT
2014-09-30
Minimum magnitude displayed is 2.5.

Coastal Water Temperatures

Place Temperature
No Stations Reporting

Nearby Weather Stations